sensor_id;sensor_type;location;lat;lon;timestamp;P1;durP1;ratioP1;P2;durP2;ratioP2
71572;SDS011;59408;51.032;9.410;2022-07-06T00:00:09;5.27;;;2.70;;
71572;SDS011;59408;51.032;9.410;2022-07-06T00:02:36;5.30;;;2.63;;
71572;SDS011;59408;51.032;9.410;2022-07-06T00:05:05;4.53;;;2.20;;
71572;SDS011;59408;51.032;9.410;2022-07-06T00:07:32;5.50;;;2.78;;
71572;SDS011;59408;51.032;9.410;2022-07-06T00:09:59;6.18;;;2.70;;
71572;SDS011;59408;51.032;9.410;2022-07-06T00:12:25;6.43;;;2.38;;
71572;SDS011;59408;51.032;9.410;2022-07-06T00:14:52;5.95;;;2.90;;
71572;SDS011;59408;51.032;9.410;2022-07-06T00:17:18;7.07;;;3.00;;
71572;SDS011;59408;51.032;9.410;2022-07-06T00:19:45;5.90;;;2.90;;
71572;SDS011;59408;51.032;9.410;2022-07-06T00:22:13;6.60;;;3.00;;
71572;SDS011;59408;51.032;9.410;2022-07-06T00:24:40;7.47;;;2.83;;
71572;SDS011;59408;51.032;9.410;2022-07-06T00:27:06;6.17;;;2.57;;
71572;SDS011;59408;51.032;9.410;2022-07-06T00:29:33;5.20;;;2.70;;
71572;SDS011;59408;51.032;9.410;2022-07-06T00:31:59;6.07;;;2.80;;
71572;SDS011;59408;51.032;9.410;2022-07-06T00:34:26;5.88;;;2.70;;
71572;SDS011;59408;51.032;9.410;2022-07-06T00:36:53;5.93;;;3.30;;
71572;SDS011;59408;51.032;9.410;2022-07-06T00:39:21;5.60;;;2.85;;
71572;SDS011;59408;51.032;9.410;2022-07-06T00:41:47;7.45;;;2.90;;
71572;SDS011;59408;51.032;9.410;2022-07-06T00:44:14;5.82;;;2.72;;
71572;SDS011;59408;51.032;9.410;2022-07-06T00:46:40;6.40;;;3.08;;
71572;SDS011;59408;51.032;9.410;2022-07-06T00:49:07;5.23;;;2.70;;
71572;SDS011;59408;51.032;9.410;2022-07-06T00:51:34;5.40;;;2.80;;
71572;SDS011;59408;51.032;9.410;2022-07-06T00:54:04;5.90;;;2.80;;
71572;SDS011;59408;51.032;9.410;2022-07-06T00:56:33;5.85;;;3.10;;
71572;SDS011;59408;51.032;9.410;2022-07-06T00:59:01;5.32;;;2.70;;
71572;SDS011;59408;51.032;9.410;2022-07-06T01:01:27;5.35;;;2.80;;
71572;SDS011;59408;51.032;9.410;2022-07-06T01:03:54;5.35;;;2.50;;
71572;SDS011;59408;51.032;9.410;2022-07-06T01:06:21;5.90;;;2.83;;
71572;SDS011;59408;51.032;9.410;2022-07-06T01:08:48;7.50;;;2.60;;
71572;SDS011;59408;51.032;9.410;2022-07-06T01:11:15;5.65;;;2.53;;
71572;SDS011;59408;51.032;9.410;2022-07-06T01:13:43;5.93;;;2.77;;
71572;SDS011;59408;51.032;9.410;2022-07-06T01:16:10;6.07;;;2.80;;
71572;SDS011;59408;51.032;9.410;2022-07-06T01:18:38;5.35;;;2.75;;
71572;SDS011;59408;51.032;9.410;2022-07-06T01:21:09;6.30;;;2.70;;
71572;SDS011;59408;51.032;9.410;2022-07-06T01:23:41;5.57;;;2.95;;
71572;SDS011;59408;51.032;9.410;2022-07-06T01:26:09;5.10;;;2.60;;
71572;SDS011;59408;51.032;9.410;2022-07-06T01:28:37;6.05;;;2.53;;
71572;SDS011;59408;51.032;9.410;2022-07-06T01:31:03;6.45;;;3.22;;
71572;SDS011;59408;51.032;9.410;2022-07-06T01:33:30;6.88;;;2.85;;
71572;SDS011;59408;51.032;9.410;2022-07-06T01:35:57;5.15;;;2.55;;
71572;SDS011;59408;51.032;9.410;2022-07-06T01:38:25;7.20;;;2.80;;
71572;SDS011;59408;51.032;9.410;2022-07-06T01:40:52;5.27;;;2.70;;
71572;SDS011;59408;51.032;9.410;2022-07-06T01:43:18;6.65;;;2.95;;
71572;SDS011;59408;51.032;9.410;2022-07-06T01:45:45;5.63;;;3.15;;
71572;SDS011;59408;51.032;9.410;2022-07-06T01:48:11;5.45;;;3.35;;
71572;SDS011;59408;51.032;9.410;2022-07-06T01:50:38;5.85;;;2.85;;
71572;SDS011;59408;51.032;9.410;2022-07-06T01:53:05;5.25;;;2.60;;
71572;SDS011;59408;51.032;9.410;2022-07-06T01:55:33;6.05;;;3.03;;
71572;SDS011;59408;51.032;9.410;2022-07-06T01:57:59;6.05;;;2.80;;
71572;SDS011;59408;51.032;9.410;2022-07-06T02:00:26;5.57;;;3.00;;
71572;SDS011;59408;51.032;9.410;2022-07-06T02:02:52;6.40;;;3.20;;
71572;SDS011;59408;51.032;9.410;2022-07-06T02:05:19;6.43;;;3.03;;
71572;SDS011;59408;51.032;9.410;2022-07-06T02:07:45;7.25;;;3.25;;
71572;SDS011;59408;51.032;9.410;2022-07-06T02:10:12;7.43;;;3.70;;
71572;SDS011;59408;51.032;9.410;2022-07-06T02:12:40;5.72;;;2.90;;
71572;SDS011;59408;51.032;9.410;2022-07-06T02:15:07;8.63;;;3.40;;
71572;SDS011;59408;51.032;9.410;2022-07-06T02:17:34;6.07;;;3.35;;
71572;SDS011;59408;51.032;9.410;2022-07-06T02:20:01;5.68;;;3.10;;
71572;SDS011;59408;51.032;9.410;2022-07-06T02:22:29;6.88;;;3.42;;
71572;SDS011;59408;51.032;9.410;2022-07-06T02:24:55;6.88;;;3.83;;
71572;SDS011;59408;51.032;9.410;2022-07-06T02:27:22;6.17;;;3.10;;
71572;SDS011;59408;51.032;9.410;2022-07-06T02:29:50;6.80;;;3.30;;
71572;SDS011;59408;51.032;9.410;2022-07-06T02:32:16;5.85;;;3.55;;
71572;SDS011;59408;51.032;9.410;2022-07-06T02:34:43;6.57;;;3.70;;
71572;SDS011;59408;51.032;9.410;2022-07-06T02:37:10;7.63;;;3.60;;
71572;SDS011;59408;51.032;9.410;2022-07-06T02:39:36;8.43;;;4.00;;
71572;SDS011;59408;51.032;9.410;2022-07-06T02:42:03;6.75;;;3.67;;
71572;SDS011;59408;51.032;9.410;2022-07-06T02:44:30;6.35;;;3.40;;
71572;SDS011;59408;51.032;9.410;2022-07-06T02:46:58;6.25;;;3.90;;
71572;SDS011;59408;51.032;9.410;2022-07-06T02:49:24;7.50;;;3.40;;
71572;SDS011;59408;51.032;9.410;2022-07-06T02:51:51;7.10;;;3.80;;
71572;SDS011;59408;51.032;9.410;2022-07-06T02:54:17;7.80;;;4.20;;
71572;SDS011;59408;51.032;9.410;2022-07-06T02:56:44;6.07;;;3.80;;
71572;SDS011;59408;51.032;9.410;2022-07-06T02:59:11;6.20;;;3.60;;
71572;SDS011;59408;51.032;9.410;2022-07-06T03:01:40;6.25;;;3.72;;
71572;SDS011;59408;51.032;9.410;2022-07-06T03:04:07;6.78;;;3.90;;
71572;SDS011;59408;51.032;9.410;2022-07-06T03:06:34;7.82;;;3.58;;
71572;SDS011;59408;51.032;9.410;2022-07-06T03:09:01;7.80;;;3.60;;
71572;SDS011;59408;51.032;9.410;2022-07-06T03:11:28;6.57;;;3.35;;
71572;SDS011;59408;51.032;9.410;2022-07-06T03:13:55;7.20;;;3.95;;
71572;SDS011;59408;51.032;9.410;2022-07-06T03:16:21;7.33;;;3.87;;
71572;SDS011;59408;51.032;9.410;2022-07-06T03:18:48;6.60;;;3.77;;
71572;SDS011;59408;51.032;9.410;2022-07-06T03:21:16;6.47;;;3.67;;
71572;SDS011;59408;51.032;9.410;2022-07-06T03:23:43;6.47;;;3.60;;
71572;SDS011;59408;51.032;9.410;2022-07-06T03:26:09;6.60;;;3.90;;
71572;SDS011;59408;51.032;9.410;2022-07-06T03:28:36;6.20;;;3.22;;
71572;SDS011;59408;51.032;9.410;2022-07-06T03:31:03;7.25;;;3.28;;
71572;SDS011;59408;51.032;9.410;2022-07-06T03:33:29;7.43;;;3.55;;
71572;SDS011;59408;51.032;9.410;2022-07-06T03:35:56;7.32;;;3.78;;
71572;SDS011;59408;51.032;9.410;2022-07-06T03:38:24;6.55;;;3.33;;
71572;SDS011;59408;51.032;9.410;2022-07-06T03:40:51;5.80;;;3.57;;
71572;SDS011;59408;51.032;9.410;2022-07-06T03:43:18;6.63;;;3.23;;
71572;SDS011;59408;51.032;9.410;2022-07-06T03:45:44;8.40;;;3.60;;
71572;SDS011;59408;51.032;9.410;2022-07-06T03:48:11;5.75;;;3.35;;
71572;SDS011;59408;51.032;9.410;2022-07-06T03:50:37;6.95;;;3.63;;
71572;SDS011;59408;51.032;9.410;2022-07-06T03:53:04;6.38;;;3.70;;
71572;SDS011;59408;51.032;9.410;2022-07-06T03:55:32;8.18;;;3.40;;
71572;SDS011;59408;51.032;9.410;2022-07-06T03:57:59;6.28;;;3.25;;
71572;SDS011;59408;51.032;9.410;2022-07-06T04:00:31;7.07;;;3.63;;
71572;SDS011;59408;51.032;9.410;2022-07-06T04:02:58;6.72;;;3.42;;
71572;SDS011;59408;51.032;9.410;2022-07-06T04:05:25;6.57;;;3.20;;
71572;SDS011;59408;51.032;9.410;2022-07-06T04:07:51;6.73;;;3.50;;
71572;SDS011;59408;51.032;9.410;2022-07-06T04:10:18;5.78;;;3.20;;
71572;SDS011;59408;51.032;9.410;2022-07-06T04:12:46;6.40;;;3.10;;
71572;SDS011;59408;51.032;9.410;2022-07-06T04:15:12;5.90;;;3.00;;
71572;SDS011;59408;51.032;9.410;2022-07-06T04:17:39;6.55;;;3.13;;
71572;SDS011;59408;51.032;9.410;2022-07-06T04:20:06;5.55;;;3.10;;
71572;SDS011;59408;51.032;9.410;2022-07-06T04:22:36;5.70;;;3.17;;
71572;SDS011;59408;51.032;9.410;2022-07-06T04:25:03;7.80;;;3.03;;
71572;SDS011;59408;51.032;9.410;2022-07-06T04:27:31;7.15;;;3.08;;
71572;SDS011;59408;51.032;9.410;2022-07-06T04:29:59;8.23;;;3.50;;
71572;SDS011;59408;51.032;9.410;2022-07-06T04:32:25;5.83;;;3.33;;
71572;SDS011;59408;51.032;9.410;2022-07-06T04:34:52;5.95;;;3.20;;
71572;SDS011;59408;51.032;9.410;2022-07-06T04:37:18;6.95;;;3.53;;
71572;SDS011;59408;51.032;9.410;2022-07-06T04:39:45;7.38;;;3.03;;
71572;SDS011;59408;51.032;9.410;2022-07-06T04:42:12;6.95;;;2.90;;
71572;SDS011;59408;51.032;9.410;2022-07-06T04:44:38;6.88;;;2.97;;
71572;SDS011;59408;51.032;9.410;2022-07-06T04:47:06;6.20;;;2.97;;
71572;SDS011;59408;51.032;9.410;2022-07-06T04:49:33;6.47;;;2.42;;
71572;SDS011;59408;51.032;9.410;2022-07-06T04:52:00;7.15;;;2.65;;
71572;SDS011;59408;51.032;9.410;2022-07-06T04:54:26;5.60;;;2.40;;
71572;SDS011;59408;51.032;9.410;2022-07-06T04:56:53;7.67;;;2.60;;
71572;SDS011;59408;51.032;9.410;2022-07-06T04:59:19;6.18;;;2.45;;
71572;SDS011;59408;51.032;9.410;2022-07-06T05:01:46;6.40;;;2.47;;
71572;SDS011;59408;51.032;9.410;2022-07-06T05:04:14;6.13;;;2.70;;
71572;SDS011;59408;51.032;9.410;2022-07-06T05:06:41;5.80;;;2.53;;
71572;SDS011;59408;51.032;9.410;2022-07-06T05:09:07;7.38;;;2.60;;
71572;SDS011;59408;51.032;9.410;2022-07-06T05:11:34;6.45;;;2.70;;
71572;SDS011;59408;51.032;9.410;2022-07-06T05:14:00;8.45;;;2.70;;
71572;SDS011;59408;51.032;9.410;2022-07-06T05:16:27;6.65;;;2.72;;
71572;SDS011;59408;51.032;9.410;2022-07-06T05:18:54;6.50;;;2.70;;
71572;SDS011;59408;51.032;9.410;2022-07-06T05:21:22;7.13;;;2.63;;
71572;SDS011;59408;51.032;9.410;2022-07-06T05:23:48;5.95;;;2.45;;
71572;SDS011;59408;51.032;9.410;2022-07-06T05:26:15;5.75;;;2.40;;
71572;SDS011;59408;51.032;9.410;2022-07-06T05:28:41;7.47;;;2.80;;
71572;SDS011;59408;51.032;9.410;2022-07-06T05:31:08;5.78;;;2.60;;
71572;SDS011;59408;51.032;9.410;2022-07-06T05:33:35;10.60;;;2.50;;
71572;SDS011;59408;51.032;9.410;2022-07-06T05:36:01;5.88;;;2.70;;
71572;SDS011;59408;51.032;9.410;2022-07-06T05:38:29;6.10;;;2.83;;
71572;SDS011;59408;51.032;9.410;2022-07-06T05:40:56;6.55;;;2.58;;
71572;SDS011;59408;51.032;9.410;2022-07-06T05:43:23;7.10;;;2.70;;
71572;SDS011;59408;51.032;9.410;2022-07-06T05:45:50;6.77;;;2.70;;
71572;SDS011;59408;51.032;9.410;2022-07-06T05:48:17;6.50;;;2.70;;
71572;SDS011;59408;51.032;9.410;2022-07-06T05:50:43;6.40;;;2.72;;
71572;SDS011;59408;51.032;9.410;2022-07-06T05:53:10;6.60;;;2.78;;
71572;SDS011;59408;51.032;9.410;2022-07-06T05:55:45;7.03;;;2.80;;
71572;SDS011;59408;51.032;9.410;2022-07-06T05:58:12;6.53;;;3.28;;
71572;SDS011;59408;51.032;9.410;2022-07-06T06:00:39;6.80;;;3.10;;
71572;SDS011;59408;51.032;9.410;2022-07-06T06:03:06;7.85;;;3.00;;
71572;SDS011;59408;51.032;9.410;2022-07-06T06:05:33;7.90;;;2.95;;
71572;SDS011;59408;51.032;9.410;2022-07-06T06:07:59;7.80;;;2.67;;
71572;SDS011;59408;51.032;9.410;2022-07-06T06:10:26;6.83;;;2.70;;
71572;SDS011;59408;51.032;9.410;2022-07-06T06:12:54;8.93;;;3.03;;
71572;SDS011;59408;51.032;9.410;2022-07-06T06:15:21;9.93;;;2.92;;
71572;SDS011;59408;51.032;9.410;2022-07-06T06:17:47;6.70;;;2.90;;
71572;SDS011;59408;51.032;9.410;2022-07-06T06:20:14;8.75;;;3.17;;
71572;SDS011;59408;51.032;9.410;2022-07-06T06:22:44;6.13;;;2.83;;
71572;SDS011;59408;51.032;9.410;2022-07-06T06:25:12;7.75;;;2.70;;
71572;SDS011;59408;51.032;9.410;2022-07-06T06:27:39;6.53;;;2.80;;
71572;SDS011;59408;51.032;9.410;2022-07-06T06:30:07;8.43;;;3.13;;
71572;SDS011;59408;51.032;9.410;2022-07-06T06:32:35;7.33;;;3.00;;
71572;SDS011;59408;51.032;9.410;2022-07-06T06:35:01;7.73;;;2.97;;
71572;SDS011;59408;51.032;9.410;2022-07-06T06:37:28;8.45;;;2.75;;
71572;SDS011;59408;51.032;9.410;2022-07-06T06:39:55;7.43;;;2.90;;
71572;SDS011;59408;51.032;9.410;2022-07-06T06:42:21;9.00;;;2.60;;
71572;SDS011;59408;51.032;9.410;2022-07-06T06:44:48;5.70;;;2.72;;
71572;SDS011;59408;51.032;9.410;2022-07-06T06:47:16;6.57;;;2.88;;
71572;SDS011;59408;51.032;9.410;2022-07-06T06:49:43;8.32;;;2.78;;
71572;SDS011;59408;51.032;9.410;2022-07-06T06:52:09;6.38;;;2.70;;
71572;SDS011;59408;51.032;9.410;2022-07-06T06:54:56;5.35;;;2.47;;
71572;SDS011;59408;51.032;9.410;2022-07-06T06:57:23;6.00;;;2.80;;
71572;SDS011;59408;51.032;9.410;2022-07-06T06:59:50;8.10;;;2.70;;
71572;SDS011;59408;51.032;9.410;2022-07-06T07:02:17;9.38;;;2.80;;
71572;SDS011;59408;51.032;9.410;2022-07-06T07:04:44;6.07;;;2.65;;
71572;SDS011;59408;51.032;9.410;2022-07-06T07:07:11;7.07;;;2.67;;
71572;SDS011;59408;51.032;9.410;2022-07-06T07:09:37;7.68;;;2.20;;
71572;SDS011;59408;51.032;9.410;2022-07-06T07:12:04;5.35;;;2.00;;
71572;SDS011;59408;51.032;9.410;2022-07-06T07:14:31;6.10;;;1.63;;
71572;SDS011;59408;51.032;9.410;2022-07-06T07:16:57;6.47;;;2.03;;
71572;SDS011;59408;51.032;9.410;2022-07-06T07:19:25;5.65;;;1.67;;
71572;SDS011;59408;51.032;9.410;2022-07-06T07:21:52;5.43;;;1.60;;
71572;SDS011;59408;51.032;9.410;2022-07-06T07:24:19;5.23;;;1.57;;
71572;SDS011;59408;51.032;9.410;2022-07-06T07:26:45;5.10;;;1.80;;
71572;SDS011;59408;51.032;9.410;2022-07-06T07:29:12;7.53;;;1.75;;
71572;SDS011;59408;51.032;9.410;2022-07-06T07:31:38;5.45;;;1.70;;
71572;SDS011;59408;51.032;9.410;2022-07-06T07:34:05;4.45;;;1.70;;
71572;SDS011;59408;51.032;9.410;2022-07-06T07:36:33;4.80;;;1.70;;
71572;SDS011;59408;51.032;9.410;2022-07-06T07:38:59;6.35;;;1.70;;
71572;SDS011;59408;51.032;9.410;2022-07-06T07:41:26;4.40;;;1.70;;
71572;SDS011;59408;51.032;9.410;2022-07-06T07:43:53;4.95;;;1.50;;
71572;SDS011;59408;51.032;9.410;2022-07-06T07:46:19;4.97;;;1.87;;
71572;SDS011;59408;51.032;9.410;2022-07-06T07:48:46;5.50;;;1.83;;
71572;SDS011;59408;51.032;9.410;2022-07-06T07:51:13;9.05;;;2.00;;
71572;SDS011;59408;51.032;9.410;2022-07-06T07:53:41;5.20;;;1.73;;
71572;SDS011;59408;51.032;9.410;2022-07-06T07:56:07;5.30;;;1.90;;
71572;SDS011;59408;51.032;9.410;2022-07-06T07:58:34;5.38;;;2.10;;
71572;SDS011;59408;51.032;9.410;2022-07-06T08:01:00;6.97;;;2.03;;
71572;SDS011;59408;51.032;9.410;2022-07-06T08:03:27;5.78;;;2.08;;
71572;SDS011;59408;51.032;9.410;2022-07-06T08:05:54;5.72;;;2.20;;
71572;SDS011;59408;51.032;9.410;2022-07-06T08:08:20;6.20;;;2.40;;
71572;SDS011;59408;51.032;9.410;2022-07-06T08:10:49;5.73;;;1.90;;
71572;SDS011;59408;51.032;9.410;2022-07-06T08:13:35;6.17;;;2.17;;
71572;SDS011;59408;51.032;9.410;2022-07-06T08:16:03;6.78;;;2.22;;
71572;SDS011;59408;51.032;9.410;2022-07-06T08:18:30;5.13;;;2.30;;
71572;SDS011;59408;51.032;9.410;2022-07-06T08:20:57;5.68;;;2.55;;
71572;SDS011;59408;51.032;9.410;2022-07-06T08:23:44;5.47;;;2.45;;
71572;SDS011;59408;51.032;9.410;2022-07-06T08:26:12;4.53;;;2.03;;
71572;SDS011;59408;51.032;9.410;2022-07-06T08:28:43;5.38;;;2.40;;
71572;SDS011;59408;51.032;9.410;2022-07-06T08:31:09;5.07;;;2.13;;
71572;SDS011;59408;51.032;9.410;2022-07-06T08:33:56;6.38;;;2.05;;
71572;SDS011;59408;51.032;9.410;2022-07-06T08:36:23;6.37;;;1.90;;
71572;SDS011;59408;51.032;9.410;2022-07-06T08:38:50;6.00;;;1.90;;
71572;SDS011;59408;51.032;9.410;2022-07-06T08:41:18;5.13;;;2.10;;
71572;SDS011;59408;51.032;9.410;2022-07-06T08:43:51;4.90;;;2.17;;
71572;SDS011;59408;51.032;9.410;2022-07-06T08:46:18;6.72;;;2.10;;
71572;SDS011;59408;51.032;9.410;2022-07-06T08:48:46;5.65;;;1.95;;
71572;SDS011;59408;51.032;9.410;2022-07-06T08:51:14;5.28;;;1.88;;
71572;SDS011;59408;51.032;9.410;2022-07-06T08:53:41;5.20;;;1.98;;
71572;SDS011;59408;51.032;9.410;2022-07-06T08:56:08;4.90;;;1.67;;
71572;SDS011;59408;51.032;9.410;2022-07-06T08:58:37;5.25;;;1.90;;
71572;SDS011;59408;51.032;9.410;2022-07-06T09:01:04;4.67;;;1.60;;
71572;SDS011;59408;51.032;9.410;2022-07-06T09:03:31;4.87;;;1.70;;
71572;SDS011;59408;51.032;9.410;2022-07-06T09:05:59;7.03;;;1.80;;
71572;SDS011;59408;51.032;9.410;2022-07-06T09:08:28;4.85;;;1.70;;
71572;SDS011;59408;51.032;9.410;2022-07-06T09:10:57;5.25;;;1.42;;
71572;SDS011;59408;51.032;9.410;2022-07-06T09:13:23;5.07;;;1.40;;
71572;SDS011;59408;51.032;9.410;2022-07-06T09:15:52;4.10;;;1.55;;
71572;SDS011;59408;51.032;9.410;2022-07-06T09:18:37;5.40;;;1.20;;
71572;SDS011;59408;51.032;9.410;2022-07-06T09:21:04;5.03;;;1.23;;
71572;SDS011;59408;51.032;9.410;2022-07-06T09:23:31;3.90;;;1.17;;
71572;SDS011;59408;51.032;9.410;2022-07-06T09:25:59;3.50;;;1.00;;
71572;SDS011;59408;51.032;9.410;2022-07-06T09:28:39;5.07;;;1.00;;
71572;SDS011;59408;51.032;9.410;2022-07-06T09:31:08;4.57;;;1.15;;
71572;SDS011;59408;51.032;9.410;2022-07-06T09:33:52;5.15;;;1.00;;
71572;SDS011;59408;51.032;9.410;2022-07-06T09:36:26;4.35;;;1.25;;
71572;SDS011;59408;51.032;9.410;2022-07-06T09:39:14;3.90;;;1.30;;
71572;SDS011;59408;51.032;9.410;2022-07-06T09:41:43;4.05;;;1.17;;
71572;SDS011;59408;51.032;9.410;2022-07-06T09:44:35;4.72;;;1.40;;
71572;SDS011;59408;51.032;9.410;2022-07-06T09:47:04;3.67;;;1.23;;
71572;SDS011;59408;51.032;9.410;2022-07-06T09:49:32;4.10;;;0.95;;
71572;SDS011;59408;51.032;9.410;2022-07-06T09:52:00;5.13;;;1.13;;
71572;SDS011;59408;51.032;9.410;2022-07-06T09:54:28;5.70;;;1.27;;
71572;SDS011;59408;51.032;9.410;2022-07-06T09:56:56;4.03;;;1.10;;
71572;SDS011;59408;51.032;9.410;2022-07-06T09:59:23;6.18;;;1.08;;
71572;SDS011;59408;51.032;9.410;2022-07-06T10:01:52;3.80;;;1.25;;
71572;SDS011;59408;51.032;9.410;2022-07-06T10:04:21;5.40;;;1.30;;
71572;SDS011;59408;51.032;9.410;2022-07-06T10:06:48;3.15;;;0.80;;
71572;SDS011;59408;51.032;9.410;2022-07-06T10:09:16;4.20;;;0.93;;
71572;SDS011;59408;51.032;9.410;2022-07-06T10:11:45;4.10;;;1.02;;
71572;SDS011;59408;51.032;9.410;2022-07-06T10:14:14;4.22;;;1.00;;
71572;SDS011;59408;51.032;9.410;2022-07-06T10:16:44;5.17;;;1.07;;
71572;SDS011;59408;51.032;9.410;2022-07-06T10:19:12;3.47;;;1.10;;
71572;SDS011;59408;51.032;9.410;2022-07-06T10:21:41;4.32;;;0.82;;
71572;SDS011;59408;51.032;9.410;2022-07-06T10:24:09;3.85;;;0.90;;
71572;SDS011;59408;51.032;9.410;2022-07-06T10:26:36;5.05;;;1.10;;
71572;SDS011;59408;51.032;9.410;2022-07-06T10:29:03;2.88;;;1.00;;
71572;SDS011;59408;51.032;9.410;2022-07-06T10:31:30;3.38;;;0.90;;
71572;SDS011;59408;51.032;9.410;2022-07-06T10:33:59;4.78;;;1.10;;
71572;SDS011;59408;51.032;9.410;2022-07-06T10:36:28;3.50;;;1.00;;
71572;SDS011;59408;51.032;9.410;2022-07-06T10:38:57;3.30;;;0.80;;
71572;SDS011;59408;51.032;9.410;2022-07-06T10:41:30;4.53;;;0.97;;
71572;SDS011;59408;51.032;9.410;2022-07-06T10:43:58;4.10;;;1.03;;
71572;SDS011;59408;51.032;9.410;2022-07-06T10:46:41;3.05;;;1.00;;
71572;SDS011;59408;51.032;9.410;2022-07-06T10:49:15;4.35;;;0.95;;
71572;SDS011;59408;51.032;9.410;2022-07-06T10:52:02;4.60;;;1.20;;
71572;SDS011;59408;51.032;9.410;2022-07-06T10:54:32;3.28;;;0.80;;
71572;SDS011;59408;51.032;9.410;2022-07-06T10:57:08;3.60;;;0.90;;
71572;SDS011;59408;51.032;9.410;2022-07-06T10:59:35;3.78;;;0.95;;
71572;SDS011;59408;51.032;9.410;2022-07-06T11:02:11;5.07;;;0.95;;
71572;SDS011;59408;51.032;9.410;2022-07-06T11:04:40;3.13;;;1.00;;
71572;SDS011;59408;51.032;9.410;2022-07-06T11:07:07;4.83;;;1.07;;
71572;SDS011;59408;51.032;9.410;2022-07-06T11:09:35;4.07;;;0.93;;
71572;SDS011;59408;51.032;9.410;2022-07-06T11:12:11;4.53;;;0.70;;
71572;SDS011;59408;51.032;9.410;2022-07-06T11:14:40;2.58;;;0.80;;
71572;SDS011;59408;51.032;9.410;2022-07-06T11:17:09;2.88;;;0.85;;
71572;SDS011;59408;51.032;9.410;2022-07-06T11:19:36;4.00;;;1.02;;
71572;SDS011;59408;51.032;9.410;2022-07-06T11:22:07;3.50;;;0.80;;
71572;SDS011;59408;51.032;9.410;2022-07-06T11:24:36;4.40;;;0.90;;
71572;SDS011;59408;51.032;9.410;2022-07-06T11:27:04;4.25;;;0.80;;
71572;SDS011;59408;51.032;9.410;2022-07-06T11:29:31;3.80;;;0.73;;
71572;SDS011;59408;51.032;9.410;2022-07-06T11:31:59;4.20;;;0.83;;
71572;SDS011;59408;51.032;9.410;2022-07-06T11:34:26;3.78;;;1.00;;
71572;SDS011;59408;51.032;9.410;2022-07-06T11:36:55;3.92;;;1.05;;
71572;SDS011;59408;51.032;9.410;2022-07-06T11:39:22;4.20;;;1.10;;
71572;SDS011;59408;51.032;9.410;2022-07-06T11:41:50;3.15;;;0.90;;
71572;SDS011;59408;51.032;9.410;2022-07-06T11:44:17;2.90;;;0.70;;
71572;SDS011;59408;51.032;9.410;2022-07-06T11:46:44;4.32;;;1.20;;
71572;SDS011;59408;51.032;9.410;2022-07-06T11:49:10;3.50;;;0.95;;
71572;SDS011;59408;51.032;9.410;2022-07-06T11:51:41;4.37;;;0.80;;
71572;SDS011;59408;51.032;9.410;2022-07-06T11:54:09;4.30;;;1.00;;
71572;SDS011;59408;51.032;9.410;2022-07-06T11:56:38;4.88;;;1.17;;
71572;SDS011;59408;51.032;9.410;2022-07-06T11:59:13;5.20;;;1.05;;
71572;SDS011;59408;51.032;9.410;2022-07-06T12:01:41;5.07;;;1.35;;
71572;SDS011;59408;51.032;9.410;2022-07-06T12:04:08;3.33;;;0.93;;
71572;SDS011;59408;51.032;9.410;2022-07-06T12:06:34;3.72;;;0.80;;
71572;SDS011;59408;51.032;9.410;2022-07-06T12:09:08;5.63;;;0.77;;
71572;SDS011;59408;51.032;9.410;2022-07-06T12:11:35;4.18;;;0.95;;
71572;SDS011;59408;51.032;9.410;2022-07-06T12:14:03;3.67;;;1.20;;
71572;SDS011;59408;51.032;9.410;2022-07-06T12:16:41;5.00;;;1.27;;
71572;SDS011;59408;51.032;9.410;2022-07-06T12:19:08;3.43;;;0.80;;
71572;SDS011;59408;51.032;9.410;2022-07-06T12:21:34;3.63;;;0.77;;
71572;SDS011;59408;51.032;9.410;2022-07-06T12:24:05;5.10;;;1.00;;
71572;SDS011;59408;51.032;9.410;2022-07-06T12:26:38;3.65;;;1.00;;
71572;SDS011;59408;51.032;9.410;2022-07-06T12:29:08;3.70;;;1.02;;
71572;SDS011;59408;51.032;9.410;2022-07-06T12:31:39;4.30;;;1.00;;
71572;SDS011;59408;51.032;9.410;2022-07-06T12:34:11;3.63;;;1.05;;
71572;SDS011;59408;51.032;9.410;2022-07-06T12:36:42;5.57;;;1.08;;
71572;SDS011;59408;51.032;9.410;2022-07-06T12:39:10;3.33;;;0.87;;
71572;SDS011;59408;51.032;9.410;2022-07-06T12:41:37;3.40;;;0.90;;
71572;SDS011;59408;51.032;9.410;2022-07-06T12:44:09;2.88;;;0.90;;
71572;SDS011;59408;51.032;9.410;2022-07-06T12:46:38;3.75;;;1.00;;
71572;SDS011;59408;51.032;9.410;2022-07-06T12:49:13;4.07;;;1.30;;
71572;SDS011;59408;51.032;9.410;2022-07-06T12:54:36;3.25;;;0.80;;
71572;SDS011;59408;51.032;9.410;2022-07-06T12:57:08;3.28;;;0.90;;
71572;SDS011;59408;51.032;9.410;2022-07-06T12:59:37;3.80;;;0.93;;
71572;SDS011;59408;51.032;9.410;2022-07-06T13:02:07;4.03;;;1.00;;
71572;SDS011;59408;51.032;9.410;2022-07-06T13:04:35;4.18;;;1.00;;
71572;SDS011;59408;51.032;9.410;2022-07-06T13:07:02;3.35;;;1.02;;
71572;SDS011;59408;51.032;9.410;2022-07-06T13:09:33;4.78;;;1.10;;
71572;SDS011;59408;51.032;9.410;2022-07-06T13:12:00;5.68;;;1.33;;
71572;SDS011;59408;51.032;9.410;2022-07-06T13:14:27;4.68;;;0.93;;
71572;SDS011;59408;51.032;9.410;2022-07-06T13:16:53;3.72;;;1.00;;
71572;SDS011;59408;51.032;9.410;2022-07-06T13:19:22;3.00;;;1.00;;
71572;SDS011;59408;51.032;9.410;2022-07-06T13:21:48;5.80;;;1.17;;
71572;SDS011;59408;51.032;9.410;2022-07-06T13:24:15;3.97;;;1.00;;
71572;SDS011;59408;51.032;9.410;2022-07-06T13:26:41;3.13;;;0.80;;
71572;SDS011;59408;51.032;9.410;2022-07-06T13:29:08;6.32;;;0.90;;
71572;SDS011;59408;51.032;9.410;2022-07-06T13:31:35;3.47;;;1.00;;
71572;SDS011;59408;51.032;9.410;2022-07-06T13:34:02;3.95;;;0.90;;
71572;SDS011;59408;51.032;9.410;2022-07-06T13:36:30;3.60;;;1.30;;
71572;SDS011;59408;51.032;9.410;2022-07-06T13:38:56;3.92;;;1.20;;
71572;SDS011;59408;51.032;9.410;2022-07-06T13:41:23;2.47;;;0.90;;
71572;SDS011;59408;51.032;9.410;2022-07-06T13:43:50;3.30;;;0.90;;
71572;SDS011;59408;51.032;9.410;2022-07-06T13:46:16;3.47;;;0.90;;
71572;SDS011;59408;51.032;9.410;2022-07-06T13:48:43;3.45;;;1.05;;
71572;SDS011;59408;51.032;9.410;2022-07-06T13:51:10;4.53;;;1.10;;
71572;SDS011;59408;51.032;9.410;2022-07-06T13:53:38;2.70;;;0.90;;
71572;SDS011;59408;51.032;9.410;2022-07-06T13:56:05;5.40;;;0.90;;
71572;SDS011;59408;51.032;9.410;2022-07-06T13:58:31;3.25;;;1.10;;
71572;SDS011;59408;51.032;9.410;2022-07-06T14:00:58;2.90;;;1.17;;
71572;SDS011;59408;51.032;9.410;2022-07-06T14:03:25;6.23;;;1.00;;
71572;SDS011;59408;51.032;9.410;2022-07-06T14:05:54;3.57;;;1.00;;
71572;SDS011;59408;51.032;9.410;2022-07-06T14:08:24;4.18;;;1.10;;
71572;SDS011;59408;51.032;9.410;2022-07-06T14:10:52;3.88;;;1.30;;
71572;SDS011;59408;51.032;9.410;2022-07-06T14:13:19;4.40;;;1.20;;
71572;SDS011;59408;51.032;9.410;2022-07-06T14:15:46;3.60;;;0.88;;
71572;SDS011;59408;51.032;9.410;2022-07-06T14:18:13;3.35;;;1.10;;
71572;SDS011;59408;51.032;9.410;2022-07-06T14:20:39;4.20;;;1.20;;
71572;SDS011;59408;51.032;9.410;2022-07-06T14:23:06;5.75;;;1.50;;
71572;SDS011;59408;51.032;9.410;2022-07-06T14:25:33;2.93;;;1.03;;
71572;SDS011;59408;51.032;9.410;2022-07-06T14:28:25;3.05;;;1.20;;
71572;SDS011;59408;51.032;9.410;2022-07-06T14:30:52;2.58;;;1.00;;
71572;SDS011;59408;51.032;9.410;2022-07-06T14:33:19;3.15;;;1.23;;
71572;SDS011;59408;51.032;9.410;2022-07-06T14:35:46;4.57;;;1.00;;
71572;SDS011;59408;51.032;9.410;2022-07-06T14:38:15;3.60;;;1.20;;
71572;SDS011;59408;51.032;9.410;2022-07-06T14:40:42;4.93;;;1.63;;
71572;SDS011;59408;51.032;9.410;2022-07-06T14:43:09;5.20;;;1.27;;
71572;SDS011;59408;51.032;9.410;2022-07-06T14:45:45;4.28;;;1.23;;
71572;SDS011;59408;51.032;9.410;2022-07-06T14:48:12;7.93;;;1.42;;
71572;SDS011;59408;51.032;9.410;2022-07-06T14:50:38;5.47;;;1.50;;
71572;SDS011;59408;51.032;9.410;2022-07-06T14:53:05;3.70;;;1.33;;
71572;SDS011;59408;51.032;9.410;2022-07-06T14:55:32;3.70;;;1.20;;